Urbana, IN (46990)

12:18 AM EST on February 24, 2017 (GMT -0500)
Wabash Co. Central Dispatch | | Change Station

Elev 764 ft 40.82 °N, 85.80 °W | Updated 12 seconds ago

Mostly Cloudy
Mostly Cloudy
57.1 °F
Feels Like 57.1 °F
N
0.0
Wind Variable Wind from East
Gusts 0.0 mph

Today
High -- | Low -- °F
--% Chance of Precip.
Yesterday
High -- | Low -- °F
Precip. -- in
Pressure 29.70 in
Visibility 10.0 miles
Clouds Scattered Clouds 2600 ft
Mostly Cloudy 3800 ft
Overcast 4700 ft
Dew Point 54 °F
Humidity 90%
Rainfall 0.00 in
Snow Depth Not available.
7:24 AM 6:28 PM
Waning Crescent, 7% visible
METAR KASW 240456Z AUTO 08004KT 10SM SCT026 BKN038 OVC047 11/08 A2970 RMK AO2
Pressure 29.70 in
Visibility 10.0 miles
Clouds Scattered Clouds 2600 ft
Mostly Cloudy 3800 ft
Overcast 4700 ft
Dew Point 54 °F
Humidity 90%
Rainfall 0.00 in
Snow Depth Not available.
7:24 AM 6:28 PM
Waning Crescent, 7% visible
METAR KASW 240456Z AUTO 08004KT 10SM SCT026 BKN038 OVC047 11/08 A2970 RMK AO2

Get Your Daily Forecast Email!

Thanks for signing up!

Be on the lookout for a verification email in your inbox.

You'll start receiving the daily forecast at 8 AM.

×

10-Day Weather Forecast

Almanac

Astronomy

Feb. 24, 2017 Rise Set
Actual Time
Civil Twilight
Nautical Twilight
Astronomical Twilight
Moon
Length of Visible Light
Length of Day
Tomorrow will be .
, % of the Moon is Illuminated

Today's Extremes

State Highs State Lows

Community

WunderPhotos

Upload Photos

1,962,540 photos uploaded!

WunderBlog® & News

Nearby

Air Quality

  Air Quality AQ Index Pollutant
Not available.

Snow Depth

Station Depth Elevation

Earthquake Activity

City Distance Mag. Time & Date
Minimum magnitude displayed is 2.5.

Coastal Water Temperatures

Place Temperature

Stations

Nearby Weather Stations

Station Location Temp. Windchill Dew Point Humidity Wind Precip. Elev Updated Type
                   

Watches & Warnings

There are currently no watches in effect.